sensor_id;sensor_type;location;lat;lon;timestamp;P1;durP1;ratioP1;P2;durP2;ratioP2
56667;SDS011;42542;48.360;10.958;2023-08-07T00:00:31;4.70;;;0.80;;
56667;SDS011;42542;48.360;10.958;2023-08-07T00:03:39;4.40;;;0.83;;
56667;SDS011;42542;48.360;10.958;2023-08-07T00:06:42;4.07;;;0.90;;
56667;SDS011;42542;48.360;10.958;2023-08-07T00:09:45;4.32;;;0.80;;
56667;SDS011;42542;48.360;10.958;2023-08-07T00:12:47;3.88;;;0.90;;
56667;SDS011;42542;48.360;10.958;2023-08-07T00:15:54;3.83;;;0.90;;
56667;SDS011;42542;48.360;10.958;2023-08-07T00:19:06;4.68;;;1.25;;
56667;SDS011;42542;48.360;10.958;2023-08-07T00:22:13;4.55;;;1.10;;
56667;SDS011;42542;48.360;10.958;2023-08-07T00:25:15;4.30;;;1.00;;
56667;SDS011;42542;48.360;10.958;2023-08-07T00:28:20;4.68;;;1.17;;
56667;SDS011;42542;48.360;10.958;2023-08-07T00:31:23;4.95;;;1.00;;
56667;SDS011;42542;48.360;10.958;2023-08-07T00:34:31;5.43;;;1.15;;
56667;SDS011;42542;48.360;10.958;2023-08-07T00:37:43;3.92;;;1.20;;
56667;SDS011;42542;48.360;10.958;2023-08-07T00:40:47;3.20;;;0.85;;
56667;SDS011;42542;48.360;10.958;2023-08-07T00:43:58;4.47;;;1.27;;
56667;SDS011;42542;48.360;10.958;2023-08-07T00:47:02;4.27;;;0.90;;
56667;SDS011;42542;48.360;10.958;2023-08-07T00:50:09;5.80;;;1.13;;
56667;SDS011;42542;48.360;10.958;2023-08-07T00:53:16;3.55;;;0.90;;
56667;SDS011;42542;48.360;10.958;2023-08-07T00:56:20;4.63;;;1.00;;
56667;SDS011;42542;48.360;10.958;2023-08-07T00:59:27;5.00;;;1.17;;
56667;SDS011;42542;48.360;10.958;2023-08-07T01:02:30;4.03;;;1.08;;
56667;SDS011;42542;48.360;10.958;2023-08-07T01:05:33;3.33;;;0.93;;
56667;SDS011;42542;48.360;10.958;2023-08-07T01:08:39;3.80;;;1.17;;
56667;SDS011;42542;48.360;10.958;2023-08-07T01:11:49;4.80;;;1.00;;
56667;SDS011;42542;48.360;10.958;2023-08-07T01:15:12;4.00;;;1.00;;
56667;SDS011;42542;48.360;10.958;2023-08-07T01:18:21;4.87;;;1.10;;
56667;SDS011;42542;48.360;10.958;2023-08-07T01:21:25;4.07;;;1.00;;
56667;SDS011;42542;48.360;10.958;2023-08-07T01:24:28;3.08;;;0.85;;
56667;SDS011;42542;48.360;10.958;2023-08-07T01:27:36;4.60;;;1.30;;
56667;SDS011;42542;48.360;10.958;2023-08-07T01:31:03;5.72;;;1.30;;
56667;SDS011;42542;48.360;10.958;2023-08-07T01:34:17;4.40;;;1.17;;
56667;SDS011;42542;48.360;10.958;2023-08-07T01:37:30;4.35;;;1.13;;
56667;SDS011;42542;48.360;10.958;2023-08-07T01:40:35;3.60;;;1.00;;
56667;SDS011;42542;48.360;10.958;2023-08-07T01:43:54;4.15;;;1.15;;
56667;SDS011;42542;48.360;10.958;2023-08-07T01:47:05;5.55;;;1.13;;
56667;SDS011;42542;48.360;10.958;2023-08-07T01:50:11;3.73;;;1.00;;
56667;SDS011;42542;48.360;10.958;2023-08-07T01:53:16;3.97;;;1.00;;
56667;SDS011;42542;48.360;10.958;2023-08-07T01:56:22;4.25;;;1.00;;
56667;SDS011;42542;48.360;10.958;2023-08-07T01:59:29;4.78;;;1.20;;
56667;SDS011;42542;48.360;10.958;2023-08-07T02:02:39;3.95;;;1.15;;
56667;SDS011;42542;48.360;10.958;2023-08-07T02:05:49;5.18;;;1.10;;
56667;SDS011;42542;48.360;10.958;2023-08-07T02:08:55;4.43;;;1.00;;
56667;SDS011;42542;48.360;10.958;2023-08-07T02:12:00;3.73;;;1.07;;
56667;SDS011;42542;48.360;10.958;2023-08-07T02:15:07;5.43;;;1.10;;
56667;SDS011;42542;48.360;10.958;2023-08-07T02:18:11;4.00;;;1.10;;
56667;SDS011;42542;48.360;10.958;2023-08-07T02:21:16;6.40;;;1.30;;
56667;SDS011;42542;48.360;10.958;2023-08-07T02:24:27;4.20;;;1.15;;
56667;SDS011;42542;48.360;10.958;2023-08-07T02:27:34;3.97;;;1.13;;
56667;SDS011;42542;48.360;10.958;2023-08-07T02:30:46;4.85;;;1.08;;
56667;SDS011;42542;48.360;10.958;2023-08-07T02:34:03;4.15;;;1.10;;
56667;SDS011;42542;48.360;10.958;2023-08-07T02:37:13;4.53;;;1.10;;
56667;SDS011;42542;48.360;10.958;2023-08-07T02:40:18;4.28;;;1.00;;
56667;SDS011;42542;48.360;10.958;2023-08-07T02:43:31;4.83;;;1.30;;
56667;SDS011;42542;48.360;10.958;2023-08-07T02:46:35;6.05;;;1.20;;
56667;SDS011;42542;48.360;10.958;2023-08-07T02:49:38;5.00;;;1.23;;
56667;SDS011;42542;48.360;10.958;2023-08-07T02:52:50;5.13;;;1.00;;
56667;SDS011;42542;48.360;10.958;2023-08-07T02:55:52;4.43;;;1.05;;
56667;SDS011;42542;48.360;10.958;2023-08-07T02:58:58;4.90;;;1.10;;
56667;SDS011;42542;48.360;10.958;2023-08-07T03:02:20;4.55;;;1.15;;
56667;SDS011;42542;48.360;10.958;2023-08-07T03:05:28;4.80;;;1.05;;
56667;SDS011;42542;48.360;10.958;2023-08-07T03:08:34;5.25;;;1.20;;
56667;SDS011;42542;48.360;10.958;2023-08-07T03:11:46;5.03;;;1.25;;
56667;SDS011;42542;48.360;10.958;2023-08-07T03:14:51;5.03;;;1.13;;
56667;SDS011;42542;48.360;10.958;2023-08-07T03:17:57;5.07;;;1.30;;
56667;SDS011;42542;48.360;10.958;2023-08-07T03:21:06;4.55;;;1.20;;
56667;SDS011;42542;48.360;10.958;2023-08-07T03:24:25;5.35;;;1.30;;
56667;SDS011;42542;48.360;10.958;2023-08-07T03:27:29;4.45;;;1.20;;
56667;SDS011;42542;48.360;10.958;2023-08-07T03:30:34;4.90;;;1.20;;
56667;SDS011;42542;48.360;10.958;2023-08-07T03:33:42;3.88;;;1.10;;
56667;SDS011;42542;48.360;10.958;2023-08-07T03:36:56;4.37;;;1.23;;
56667;SDS011;42542;48.360;10.958;2023-08-07T03:40:10;5.50;;;1.13;;
56667;SDS011;42542;48.360;10.958;2023-08-07T03:43:14;4.95;;;1.30;;
56667;SDS011;42542;48.360;10.958;2023-08-07T03:46:20;4.93;;;1.08;;
56667;SDS011;42542;48.360;10.958;2023-08-07T03:49:33;4.28;;;1.10;;
56667;SDS011;42542;48.360;10.958;2023-08-07T03:52:48;4.30;;;1.20;;
56667;SDS011;42542;48.360;10.958;2023-08-07T03:55:54;4.00;;;1.02;;
56667;SDS011;42542;48.360;10.958;2023-08-07T03:58:59;4.40;;;1.20;;
56667;SDS011;42542;48.360;10.958;2023-08-07T04:02:05;4.57;;;1.10;;
56667;SDS011;42542;48.360;10.958;2023-08-07T04:05:20;4.65;;;1.20;;
56667;SDS011;42542;48.360;10.958;2023-08-07T04:08:24;4.30;;;1.15;;
56667;SDS011;42542;48.360;10.958;2023-08-07T04:11:29;5.78;;;1.30;;
56667;SDS011;42542;48.360;10.958;2023-08-07T04:14:31;4.50;;;1.30;;
56667;SDS011;42542;48.360;10.958;2023-08-07T04:17:36;5.20;;;1.30;;
56667;SDS011;42542;48.360;10.958;2023-08-07T04:20:53;5.53;;;1.30;;
56667;SDS011;42542;48.360;10.958;2023-08-07T04:24:00;4.70;;;1.20;;
56667;SDS011;42542;48.360;10.958;2023-08-07T04:27:14;5.70;;;1.05;;
56667;SDS011;42542;48.360;10.958;2023-08-07T04:30:24;4.20;;;1.07;;
56667;SDS011;42542;48.360;10.958;2023-08-07T04:33:32;4.30;;;1.17;;
56667;SDS011;42542;48.360;10.958;2023-08-07T04:36:37;4.97;;;1.25;;
56667;SDS011;42542;48.360;10.958;2023-08-07T04:39:40;5.50;;;1.10;;
56667;SDS011;42542;48.360;10.958;2023-08-07T04:42:48;5.18;;;1.48;;
56667;SDS011;42542;48.360;10.958;2023-08-07T04:46:04;5.30;;;1.33;;
56667;SDS011;42542;48.360;10.958;2023-08-07T04:49:10;5.82;;;1.10;;
56667;SDS011;42542;48.360;10.958;2023-08-07T04:52:24;4.13;;;1.13;;
56667;SDS011;42542;48.360;10.958;2023-08-07T04:55:30;3.90;;;1.08;;
56667;SDS011;42542;48.360;10.958;2023-08-07T04:58:37;5.32;;;1.20;;
56667;SDS011;42542;48.360;10.958;2023-08-07T05:01:43;7.25;;;1.50;;
56667;SDS011;42542;48.360;10.958;2023-08-07T05:04:45;5.75;;;1.10;;
56667;SDS011;42542;48.360;10.958;2023-08-07T05:07:54;5.30;;;1.27;;
56667;SDS011;42542;48.360;10.958;2023-08-07T05:10:59;5.72;;;1.30;;
56667;SDS011;42542;48.360;10.958;2023-08-07T05:14:03;5.67;;;1.10;;
56667;SDS011;42542;48.360;10.958;2023-08-07T05:17:05;4.78;;;1.17;;
56667;SDS011;42542;48.360;10.958;2023-08-07T05:20:10;5.38;;;1.20;;
56667;SDS011;42542;48.360;10.958;2023-08-07T05:23:13;5.20;;;1.30;;
56667;SDS011;42542;48.360;10.958;2023-08-07T05:26:18;6.00;;;1.40;;
56667;SDS011;42542;48.360;10.958;2023-08-07T05:29:21;4.80;;;1.30;;
56667;SDS011;42542;48.360;10.958;2023-08-07T05:32:23;5.45;;;1.40;;
56667;SDS011;42542;48.360;10.958;2023-08-07T05:35:27;5.18;;;1.38;;
56667;SDS011;42542;48.360;10.958;2023-08-07T05:38:31;4.95;;;1.13;;
56667;SDS011;42542;48.360;10.958;2023-08-07T05:41:35;4.35;;;1.30;;
56667;SDS011;42542;48.360;10.958;2023-08-07T05:44:44;6.23;;;1.10;;
56667;SDS011;42542;48.360;10.958;2023-08-07T05:47:47;5.20;;;1.50;;
56667;SDS011;42542;48.360;10.958;2023-08-07T05:50:52;4.53;;;1.10;;
56667;SDS011;42542;48.360;10.958;2023-08-07T05:53:55;7.33;;;1.73;;
56667;SDS011;42542;48.360;10.958;2023-08-07T05:56:59;5.40;;;1.33;;
56667;SDS011;42542;48.360;10.958;2023-08-07T06:00:05;5.85;;;1.33;;
56667;SDS011;42542;48.360;10.958;2023-08-07T06:03:15;4.82;;;1.30;;
56667;SDS011;42542;48.360;10.958;2023-08-07T06:06:34;4.78;;;1.30;;
56667;SDS011;42542;48.360;10.958;2023-08-07T06:09:47;4.47;;;1.20;;
56667;SDS011;42542;48.360;10.958;2023-08-07T06:12:53;5.28;;;1.40;;
56667;SDS011;42542;48.360;10.958;2023-08-07T06:15:58;8.10;;;1.40;;
56667;SDS011;42542;48.360;10.958;2023-08-07T06:19:09;6.47;;;1.33;;
56667;SDS011;42542;48.360;10.958;2023-08-07T06:22:25;5.15;;;1.20;;
56667;SDS011;42542;48.360;10.958;2023-08-07T06:25:34;5.90;;;1.40;;
56667;SDS011;42542;48.360;10.958;2023-08-07T06:28:44;5.88;;;1.52;;
56667;SDS011;42542;48.360;10.958;2023-08-07T06:31:49;4.93;;;1.25;;
56667;SDS011;42542;48.360;10.958;2023-08-07T06:34:54;5.40;;;1.55;;
56667;SDS011;42542;48.360;10.958;2023-08-07T06:37:58;8.07;;;1.27;;
56667;SDS011;42542;48.360;10.958;2023-08-07T06:41:00;5.32;;;1.27;;
56667;SDS011;42542;48.360;10.958;2023-08-07T06:44:04;5.40;;;1.30;;
56667;SDS011;42542;48.360;10.958;2023-08-07T06:47:07;5.93;;;1.40;;
56667;SDS011;42542;48.360;10.958;2023-08-07T06:50:12;6.00;;;1.30;;
56667;SDS011;42542;48.360;10.958;2023-08-07T06:53:16;4.80;;;1.30;;
56667;SDS011;42542;48.360;10.958;2023-08-07T06:56:20;4.78;;;1.40;;
56667;SDS011;42542;48.360;10.958;2023-08-07T06:59:27;5.78;;;1.60;;
56667;SDS011;42542;48.360;10.958;2023-08-07T07:02:32;5.45;;;1.40;;
56667;SDS011;42542;48.360;10.958;2023-08-07T07:05:34;5.32;;;1.30;;
56667;SDS011;42542;48.360;10.958;2023-08-07T07:08:39;4.83;;;1.30;;
56667;SDS011;42542;48.360;10.958;2023-08-07T07:11:44;4.50;;;1.10;;
56667;SDS011;42542;48.360;10.958;2023-08-07T07:14:50;4.55;;;1.20;;
56667;SDS011;42542;48.360;10.958;2023-08-07T07:17:54;4.90;;;1.33;;
56667;SDS011;42542;48.360;10.958;2023-08-07T07:21:01;6.20;;;1.40;;
56667;SDS011;42542;48.360;10.958;2023-08-07T07:24:29;5.25;;;1.30;;
56667;SDS011;42542;48.360;10.958;2023-08-07T07:27:34;5.80;;;1.40;;
56667;SDS011;42542;48.360;10.958;2023-08-07T07:30:40;4.90;;;1.27;;
56667;SDS011;42542;48.360;10.958;2023-08-07T07:33:45;6.50;;;1.43;;
56667;SDS011;42542;48.360;10.958;2023-08-07T07:36:54;4.35;;;1.20;;
56667;SDS011;42542;48.360;10.958;2023-08-07T07:40:00;5.20;;;1.30;;
56667;SDS011;42542;48.360;10.958;2023-08-07T07:43:05;4.90;;;1.30;;
56667;SDS011;42542;48.360;10.958;2023-08-07T07:46:07;4.83;;;1.47;;
56667;SDS011;42542;48.360;10.958;2023-08-07T07:49:12;4.82;;;1.20;;
56667;SDS011;42542;48.360;10.958;2023-08-07T07:52:14;4.63;;;1.20;;
56667;SDS011;42542;48.360;10.958;2023-08-07T07:55:19;5.13;;;1.27;;
56667;SDS011;42542;48.360;10.958;2023-08-07T07:58:23;7.30;;;1.67;;
56667;SDS011;42542;48.360;10.958;2023-08-07T08:01:37;6.53;;;1.33;;
56667;SDS011;42542;48.360;10.958;2023-08-07T08:04:40;6.43;;;1.52;;
56667;SDS011;42542;48.360;10.958;2023-08-07T08:07:45;6.15;;;1.38;;
56667;SDS011;42542;48.360;10.958;2023-08-07T08:10:48;5.35;;;1.50;;
56667;SDS011;42542;48.360;10.958;2023-08-07T08:14:06;5.30;;;1.27;;
56667;SDS011;42542;48.360;10.958;2023-08-07T08:17:08;4.45;;;1.30;;
56667;SDS011;42542;48.360;10.958;2023-08-07T08:20:14;6.70;;;1.35;;
56667;SDS011;42542;48.360;10.958;2023-08-07T08:23:21;4.57;;;1.30;;
56667;SDS011;42542;48.360;10.958;2023-08-07T08:26:26;5.18;;;1.33;;
56667;SDS011;42542;48.360;10.958;2023-08-07T08:29:29;8.48;;;1.83;;
56667;SDS011;42542;48.360;10.958;2023-08-07T08:32:33;5.45;;;1.60;;
56667;SDS011;42542;48.360;10.958;2023-08-07T08:35:42;5.18;;;1.40;;
56667;SDS011;42542;48.360;10.958;2023-08-07T08:38:48;4.95;;;1.38;;
56667;SDS011;42542;48.360;10.958;2023-08-07T08:41:54;7.45;;;1.60;;
56667;SDS011;42542;48.360;10.958;2023-08-07T08:44:57;6.03;;;1.48;;
56667;SDS011;42542;48.360;10.958;2023-08-07T08:48:04;4.53;;;1.47;;
56667;SDS011;42542;48.360;10.958;2023-08-07T08:51:29;5.97;;;1.42;;
56667;SDS011;42542;48.360;10.958;2023-08-07T08:54:43;6.30;;;1.48;;
56667;SDS011;42542;48.360;10.958;2023-08-07T08:57:48;4.80;;;1.40;;
56667;SDS011;42542;48.360;10.958;2023-08-07T09:00:52;7.80;;;1.50;;
56667;SDS011;42542;48.360;10.958;2023-08-07T09:03:57;4.68;;;1.33;;
56667;SDS011;42542;48.360;10.958;2023-08-07T09:07:01;5.22;;;1.50;;
56667;SDS011;42542;48.360;10.958;2023-08-07T09:10:15;5.82;;;1.70;;
56667;SDS011;42542;48.360;10.958;2023-08-07T09:13:29;5.03;;;1.37;;
56667;SDS011;42542;48.360;10.958;2023-08-07T09:16:43;5.47;;;1.33;;
56667;SDS011;42542;48.360;10.958;2023-08-07T09:19:49;4.85;;;1.40;;
56667;SDS011;42542;48.360;10.958;2023-08-07T09:22:55;5.38;;;1.30;;
56667;SDS011;42542;48.360;10.958;2023-08-07T09:26:02;4.57;;;1.40;;
56667;SDS011;42542;48.360;10.958;2023-08-07T09:29:27;5.80;;;1.27;;
56667;SDS011;42542;48.360;10.958;2023-08-07T09:32:33;5.47;;;1.30;;
56667;SDS011;42542;48.360;10.958;2023-08-07T09:35:39;6.90;;;1.60;;
56667;SDS011;42542;48.360;10.958;2023-08-07T09:38:42;5.40;;;1.40;;
56667;SDS011;42542;48.360;10.958;2023-08-07T09:41:50;4.75;;;1.45;;
56667;SDS011;42542;48.360;10.958;2023-08-07T09:45:02;4.53;;;1.40;;
56667;SDS011;42542;48.360;10.958;2023-08-07T09:48:12;5.50;;;1.35;;
56667;SDS011;42542;48.360;10.958;2023-08-07T09:51:18;5.15;;;1.40;;
56667;SDS011;42542;48.360;10.958;2023-08-07T09:54:23;4.70;;;1.33;;
56667;SDS011;42542;48.360;10.958;2023-08-07T09:57:27;5.68;;;1.50;;
56667;SDS011;42542;48.360;10.958;2023-08-07T10:00:43;5.32;;;1.60;;
56667;SDS011;42542;48.360;10.958;2023-08-07T10:03:54;5.53;;;1.47;;
56667;SDS011;42542;48.360;10.958;2023-08-07T10:07:01;4.75;;;1.30;;
56667;SDS011;42542;48.360;10.958;2023-08-07T10:10:26;4.78;;;1.38;;
56667;SDS011;42542;48.360;10.958;2023-08-07T10:13:40;5.07;;;1.38;;
56667;SDS011;42542;48.360;10.958;2023-08-07T10:16:43;5.67;;;1.30;;
56667;SDS011;42542;48.360;10.958;2023-08-07T10:19:47;4.50;;;1.48;;
56667;SDS011;42542;48.360;10.958;2023-08-07T10:22:53;5.47;;;1.30;;
56667;SDS011;42542;48.360;10.958;2023-08-07T10:26:05;5.28;;;1.30;;
56667;SDS011;42542;48.360;10.958;2023-08-07T10:29:10;5.28;;;1.30;;
56667;SDS011;42542;48.360;10.958;2023-08-07T10:32:18;4.07;;;1.23;;
56667;SDS011;42542;48.360;10.958;2023-08-07T10:35:33;4.20;;;1.33;;
56667;SDS011;42542;48.360;10.958;2023-08-07T10:38:35;4.15;;;1.25;;
56667;SDS011;42542;48.360;10.958;2023-08-07T10:41:45;5.60;;;1.48;;
56667;SDS011;42542;48.360;10.958;2023-08-07T10:44:52;4.40;;;1.30;;
56667;SDS011;42542;48.360;10.958;2023-08-07T10:48:01;5.68;;;1.50;;
56667;SDS011;42542;48.360;10.958;2023-08-07T10:51:28;7.03;;;1.40;;
56667;SDS011;42542;48.360;10.958;2023-08-07T10:54:41;4.85;;;1.30;;
56667;SDS011;42542;48.360;10.958;2023-08-07T10:58:00;5.10;;;1.23;;
56667;SDS011;42542;48.360;10.958;2023-08-07T11:01:27;5.10;;;1.30;;
56667;SDS011;42542;48.360;10.958;2023-08-07T11:04:41;4.55;;;1.40;;
56667;SDS011;42542;48.360;10.958;2023-08-07T11:07:45;4.53;;;1.30;;
56667;SDS011;42542;48.360;10.958;2023-08-07T11:10:47;4.88;;;1.20;;
56667;SDS011;42542;48.360;10.958;2023-08-07T11:13:50;4.00;;;1.20;;
56667;SDS011;42542;48.360;10.958;2023-08-07T11:16:52;4.20;;;1.17;;
56667;SDS011;42542;48.360;10.958;2023-08-07T11:19:59;4.70;;;1.40;;
56667;SDS011;42542;48.360;10.958;2023-08-07T11:23:02;4.40;;;1.30;;
56667;SDS011;42542;48.360;10.958;2023-08-07T11:26:08;4.88;;;1.40;;
56667;SDS011;42542;48.360;10.958;2023-08-07T11:29:17;6.53;;;1.50;;
56667;SDS011;42542;48.360;10.958;2023-08-07T11:32:24;3.35;;;1.20;;
56667;SDS011;42542;48.360;10.958;2023-08-07T11:35:30;4.38;;;1.30;;
56667;SDS011;42542;48.360;10.958;2023-08-07T11:38:43;4.28;;;1.30;;
56667;SDS011;42542;48.360;10.958;2023-08-07T11:41:46;4.68;;;1.33;;
56667;SDS011;42542;48.360;10.958;2023-08-07T11:44:57;4.27;;;1.30;;
56667;SDS011;42542;48.360;10.958;2023-08-07T11:48:01;5.13;;;1.50;;
56667;SDS011;42542;48.360;10.958;2023-08-07T11:51:07;5.50;;;1.40;;
56667;SDS011;42542;48.360;10.958;2023-08-07T11:54:13;4.80;;;1.40;;
56667;SDS011;42542;48.360;10.958;2023-08-07T11:57:19;4.03;;;1.20;;
56667;SDS011;42542;48.360;10.958;2023-08-07T12:00:24;4.37;;;1.20;;
56667;SDS011;42542;48.360;10.958;2023-08-07T12:03:35;5.03;;;1.20;;
56667;SDS011;42542;48.360;10.958;2023-08-07T12:06:54;4.70;;;1.23;;
56667;SDS011;42542;48.360;10.958;2023-08-07T12:10:01;4.78;;;1.30;;
56667;SDS011;42542;48.360;10.958;2023-08-07T12:13:09;4.15;;;1.10;;
56667;SDS011;42542;48.360;10.958;2023-08-07T12:16:15;4.03;;;1.10;;
56667;SDS011;42542;48.360;10.958;2023-08-07T12:19:19;4.32;;;1.08;;
56667;SDS011;42542;48.360;10.958;2023-08-07T12:22:27;6.60;;;1.20;;
56667;SDS011;42542;48.360;10.958;2023-08-07T12:25:30;4.40;;;1.13;;
56667;SDS011;42542;48.360;10.958;2023-08-07T12:28:43;4.88;;;1.20;;
56667;SDS011;42542;48.360;10.958;2023-08-07T12:31:48;5.13;;;1.43;;
56667;SDS011;42542;48.360;10.958;2023-08-07T12:34:52;4.22;;;1.20;;
56667;SDS011;42542;48.360;10.958;2023-08-07T12:38:01;6.43;;;1.27;;
56667;SDS011;42542;48.360;10.958;2023-08-07T12:41:07;4.05;;;1.10;;
56667;SDS011;42542;48.360;10.958;2023-08-07T12:44:31;3.88;;;1.10;;
56667;SDS011;42542;48.360;10.958;2023-08-07T12:47:32;4.90;;;1.30;;
56667;SDS011;42542;48.360;10.958;2023-08-07T12:50:35;4.85;;;1.27;;
56667;SDS011;42542;48.360;10.958;2023-08-07T12:53:41;5.22;;;1.23;;
56667;SDS011;42542;48.360;10.958;2023-08-07T12:56:53;5.50;;;1.33;;
56667;SDS011;42542;48.360;10.958;2023-08-07T12:59:57;5.70;;;1.40;;
56667;SDS011;42542;48.360;10.958;2023-08-07T13:02:59;4.57;;;1.13;;
56667;SDS011;42542;48.360;10.958;2023-08-07T13:06:01;3.65;;;1.15;;
56667;SDS011;42542;48.360;10.958;2023-08-07T13:09:21;7.07;;;1.20;;
56667;SDS011;42542;48.360;10.958;2023-08-07T13:12:24;4.03;;;1.10;;
56667;SDS011;42542;48.360;10.958;2023-08-07T13:15:27;5.32;;;1.13;;
56667;SDS011;42542;48.360;10.958;2023-08-07T13:18:31;6.17;;;1.07;;
56667;SDS011;42542;48.360;10.958;2023-08-07T13:21:37;4.70;;;1.20;;
56667;SDS011;42542;48.360;10.958;2023-08-07T13:24:42;4.68;;;1.20;;
56667;SDS011;42542;48.360;10.958;2023-08-07T13:27:54;4.43;;;1.20;;
56667;SDS011;42542;48.360;10.958;2023-08-07T13:31:01;4.47;;;1.30;;
56667;SDS011;42542;48.360;10.958;2023-08-07T13:34:07;6.47;;;1.30;;
56667;SDS011;42542;48.360;10.958;2023-08-07T13:37:14;4.75;;;1.20;;
56667;SDS011;42542;48.360;10.958;2023-08-07T13:40:18;4.50;;;1.20;;
56667;SDS011;42542;48.360;10.958;2023-08-07T13:43:22;4.15;;;1.20;;
56667;SDS011;42542;48.360;10.958;2023-08-07T13:46:26;4.25;;;1.20;;
56667;SDS011;42542;48.360;10.958;2023-08-07T13:49:28;4.83;;;1.33;;
56667;SDS011;42542;48.360;10.958;2023-08-07T13:52:32;4.22;;;1.20;;
56667;SDS011;42542;48.360;10.958;2023-08-07T13:55:39;4.43;;;1.30;;
56667;SDS011;42542;48.360;10.958;2023-08-07T13:58:42;4.80;;;1.13;;
56667;SDS011;42542;48.360;10.958;2023-08-07T14:01:47;5.07;;;1.30;;
56667;SDS011;42542;48.360;10.958;2023-08-07T14:04:56;5.17;;;1.33;;
56667;SDS011;42542;48.360;10.958;2023-08-07T14:07:59;5.03;;;1.38;;
56667;SDS011;42542;48.360;10.958;2023-08-07T14:11:04;4.63;;;1.27;;
56667;SDS011;42542;48.360;10.958;2023-08-07T14:14:10;4.57;;;1.27;;
56667;SDS011;42542;48.360;10.958;2023-08-07T14:17:15;4.70;;;1.33;;
56667;SDS011;42542;48.360;10.958;2023-08-07T14:20:32;4.97;;;1.40;;
56667;SDS011;42542;48.360;10.958;2023-08-07T14:23:51;4.93;;;1.38;;
56667;SDS011;42542;48.360;10.958;2023-08-07T14:26:54;5.57;;;1.50;;
56667;SDS011;42542;48.360;10.958;2023-08-07T14:29:57;5.20;;;1.40;;
56667;SDS011;42542;48.360;10.958;2023-08-07T14:33:02;5.30;;;1.47;;
56667;SDS011;42542;48.360;10.958;2023-08-07T14:36:06;4.63;;;1.45;;
56667;SDS011;42542;48.360;10.958;2023-08-07T14:39:10;4.40;;;1.40;;
56667;SDS011;42542;48.360;10.958;2023-08-07T14:42:26;5.72;;;1.40;;
56667;SDS011;42542;48.360;10.958;2023-08-07T14:45:32;5.60;;;1.40;;
56667;SDS011;42542;48.360;10.958;2023-08-07T14:48:46;4.97;;;1.40;;
56667;SDS011;42542;48.360;10.958;2023-08-07T14:51:49;3.85;;;1.30;;
56667;SDS011;42542;48.360;10.958;2023-08-07T14:54:55;4.82;;;1.40;;
56667;SDS011;42542;48.360;10.958;2023-08-07T14:57:59;5.75;;;1.40;;
56667;SDS011;42542;48.360;10.958;2023-08-07T15:01:05;5.22;;;1.60;;
56667;SDS011;42542;48.360;10.958;2023-08-07T15:04:11;5.40;;;1.40;;
56667;SDS011;42542;48.360;10.958;2023-08-07T15:07:16;4.13;;;1.30;;
56667;SDS011;42542;48.360;10.958;2023-08-07T15:10:18;4.90;;;1.38;;
56667;SDS011;42542;48.360;10.958;2023-08-07T15:13:28;5.25;;;1.58;;
56667;SDS011;42542;48.360;10.958;2023-08-07T15:16:32;4.80;;;1.40;;
56667;SDS011;42542;48.360;10.958;2023-08-07T15:19:44;4.53;;;1.40;;
56667;SDS011;42542;48.360;10.958;2023-08-07T15:22:48;3.95;;;1.38;;
56667;SDS011;42542;48.360;10.958;2023-08-07T15:25:53;5.30;;;1.27;;
56667;SDS011;42542;48.360;10.958;2023-08-07T15:28:55;6.13;;;1.60;;
56667;SDS011;42542;48.360;10.958;2023-08-07T15:31:57;5.10;;;1.60;;
56667;SDS011;42542;48.360;10.958;2023-08-07T15:35:00;5.97;;;1.85;;
56667;SDS011;42542;48.360;10.958;2023-08-07T15:38:02;5.10;;;1.50;;
56667;SDS011;42542;48.360;10.958;2023-08-07T15:41:04;4.68;;;1.60;;
56667;SDS011;42542;48.360;10.958;2023-08-07T15:44:09;5.53;;;1.67;;
56667;SDS011;42542;48.360;10.958;2023-08-07T15:47:26;5.75;;;1.58;;
56667;SDS011;42542;48.360;10.958;2023-08-07T15:50:29;5.55;;;1.50;;
56667;SDS011;42542;48.360;10.958;2023-08-07T15:53:33;4.97;;;1.63;;
56667;SDS011;42542;48.360;10.958;2023-08-07T15:56:36;6.40;;;1.70;;
56667;SDS011;42542;48.360;10.958;2023-08-07T15:59:40;7.27;;;1.53;;
56667;SDS011;42542;48.360;10.958;2023-08-07T16:02:44;5.07;;;1.60;;
56667;SDS011;42542;48.360;10.958;2023-08-07T16:05:52;5.45;;;1.63;;
56667;SDS011;42542;48.360;10.958;2023-08-07T16:08:57;6.18;;;1.50;;
56667;SDS011;42542;48.360;10.958;2023-08-07T16:11:59;4.88;;;1.55;;
56667;SDS011;42542;48.360;10.958;2023-08-07T16:15:07;5.38;;;1.85;;
56667;SDS011;42542;48.360;10.958;2023-08-07T16:18:12;4.93;;;1.40;;
56667;SDS011;42542;48.360;10.958;2023-08-07T16:21:17;4.80;;;1.50;;
56667;SDS011;42542;48.360;10.958;2023-08-07T16:24:22;5.35;;;1.70;;
56667;SDS011;42542;48.360;10.958;2023-08-07T16:27:27;5.40;;;1.50;;
56667;SDS011;42542;48.360;10.958;2023-08-07T16:30:37;5.47;;;1.65;;
56667;SDS011;42542;48.360;10.958;2023-08-07T16:33:43;4.95;;;1.60;;
56667;SDS011;42542;48.360;10.958;2023-08-07T16:36:47;6.65;;;1.80;;
56667;SDS011;42542;48.360;10.958;2023-08-07T16:39:53;5.17;;;1.77;;
56667;SDS011;42542;48.360;10.958;2023-08-07T16:42:59;4.90;;;1.63;;
56667;SDS011;42542;48.360;10.958;2023-08-07T16:46:11;5.00;;;1.60;;
56667;SDS011;42542;48.360;10.958;2023-08-07T16:49:13;4.75;;;1.40;;
56667;SDS011;42542;48.360;10.958;2023-08-07T16:52:20;4.70;;;1.60;;
56667;SDS011;42542;48.360;10.958;2023-08-07T16:55:25;5.10;;;1.67;;
56667;SDS011;42542;48.360;10.958;2023-08-07T16:58:31;5.53;;;1.60;;
56667;SDS011;42542;48.360;10.958;2023-08-07T17:01:34;5.38;;;1.70;;
56667;SDS011;42542;48.360;10.958;2023-08-07T17:04:37;5.72;;;1.50;;
56667;SDS011;42542;48.360;10.958;2023-08-07T17:07:40;6.13;;;1.70;;
56667;SDS011;42542;48.360;10.958;2023-08-07T17:10:46;6.90;;;2.25;;
56667;SDS011;42542;48.360;10.958;2023-08-07T17:13:51;7.10;;;2.20;;
56667;SDS011;42542;48.360;10.958;2023-08-07T17:16:56;6.88;;;1.95;;
56667;SDS011;42542;48.360;10.958;2023-08-07T17:20:08;6.47;;;1.90;;
56667;SDS011;42542;48.360;10.958;2023-08-07T17:23:12;6.30;;;1.80;;
56667;SDS011;42542;48.360;10.958;2023-08-07T17:26:19;5.32;;;1.63;;
56667;SDS011;42542;48.360;10.958;2023-08-07T17:29:21;5.43;;;1.70;;
56667;SDS011;42542;48.360;10.958;2023-08-07T17:32:25;5.25;;;1.73;;
56667;SDS011;42542;48.360;10.958;2023-08-07T17:35:28;5.37;;;1.50;;
56667;SDS011;42542;48.360;10.958;2023-08-07T17:38:42;5.93;;;1.70;;
56667;SDS011;42542;48.360;10.958;2023-08-07T17:41:46;6.28;;;1.80;;
56667;SDS011;42542;48.360;10.958;2023-08-07T17:44:50;5.72;;;1.90;;
56667;SDS011;42542;48.360;10.958;2023-08-07T17:47:55;6.13;;;1.80;;
56667;SDS011;42542;48.360;10.958;2023-08-07T17:51:00;6.00;;;1.90;;
56667;SDS011;42542;48.360;10.958;2023-08-07T17:54:03;5.53;;;2.00;;
56667;SDS011;42542;48.360;10.958;2023-08-07T17:57:09;5.63;;;2.22;;
56667;SDS011;42542;48.360;10.958;2023-08-07T18:00:12;6.25;;;2.40;;
56667;SDS011;42542;48.360;10.958;2023-08-07T18:03:21;5.70;;;2.10;;
56667;SDS011;42542;48.360;10.958;2023-08-07T18:06:24;5.73;;;2.03;;
56667;SDS011;42542;48.360;10.958;2023-08-07T18:09:26;6.10;;;1.92;;
56667;SDS011;42542;48.360;10.958;2023-08-07T18:12:31;5.88;;;1.90;;
56667;SDS011;42542;48.360;10.958;2023-08-07T18:15:34;5.72;;;2.20;;
56667;SDS011;42542;48.360;10.958;2023-08-07T18:18:38;6.30;;;2.00;;
56667;SDS011;42542;48.360;10.958;2023-08-07T18:21:42;5.68;;;2.03;;
56667;SDS011;42542;48.360;10.958;2023-08-07T18:24:48;5.40;;;1.90;;
56667;SDS011;42542;48.360;10.958;2023-08-07T18:27:58;13.65;;;2.00;;